sensor_id;sensor_type;location;lat;lon;timestamp;temperature;humidity
13598;DHT22;38563;54.258;12.574;2023-06-14T00:00:20;13.00;99.90
13598;DHT22;38563;54.258;12.574;2023-06-14T00:02:47;13.00;99.90
13598;DHT22;38563;54.258;12.574;2023-06-14T00:05:14;12.90;99.90
13598;DHT22;38563;54.258;12.574;2023-06-14T00:07:42;12.90;99.90
13598;DHT22;38563;54.258;12.574;2023-06-14T00:10:10;12.90;99.90
13598;DHT22;38563;54.258;12.574;2023-06-14T00:12:38;12.80;99.90
13598;DHT22;38563;54.258;12.574;2023-06-14T00:15:06;12.80;99.90
13598;DHT22;38563;54.258;12.574;2023-06-14T00:17:35;12.80;99.90
13598;DHT22;38563;54.258;12.574;2023-06-14T00:20:02;12.80;99.90
13598;DHT22;38563;54.258;12.574;2023-06-14T00:22:30;12.70;99.90
13598;DHT22;38563;54.258;12.574;2023-06-14T00:25:00;12.70;99.90
13598;DHT22;38563;54.258;12.574;2023-06-14T00:27:26;12.70;99.90
13598;DHT22;38563;54.258;12.574;2023-06-14T00:29:53;12.60;99.90
13598;DHT22;38563;54.258;12.574;2023-06-14T00:32:20;12.60;99.90
13598;DHT22;38563;54.258;12.574;2023-06-14T00:34:51;12.50;99.90
13598;DHT22;38563;54.258;12.574;2023-06-14T00:37:17;12.40;99.90
13598;DHT22;38563;54.258;12.574;2023-06-14T00:39:44;12.30;99.90
13598;DHT22;38563;54.258;12.574;2023-06-14T00:42:23;12.30;99.90
13598;DHT22;38563;54.258;12.574;2023-06-14T00:44:49;12.30;99.90
13598;DHT22;38563;54.258;12.574;2023-06-14T00:47:17;12.10;99.90
13598;DHT22;38563;54.258;12.574;2023-06-14T00:49:45;12.00;99.90
13598;DHT22;38563;54.258;12.574;2023-06-14T00:52:13;12.00;99.90
13598;DHT22;38563;54.258;12.574;2023-06-14T00:54:40;12.00;99.90
13598;DHT22;38563;54.258;12.574;2023-06-14T00:57:07;11.90;99.90
13598;DHT22;38563;54.258;12.574;2023-06-14T00:59:38;11.80;99.90
13598;DHT22;38563;54.258;12.574;2023-06-14T01:02:08;11.80;99.90
13598;DHT22;38563;54.258;12.574;2023-06-14T01:04:37;11.80;99.90
13598;DHT22;38563;54.258;12.574;2023-06-14T01:07:09;11.80;99.90
13598;DHT22;38563;54.258;12.574;2023-06-14T01:09:48;11.80;99.90
13598;DHT22;38563;54.258;12.574;2023-06-14T01:12:24;11.80;99.90
13598;DHT22;38563;54.258;12.574;2023-06-14T01:14:54;11.70;99.90
13598;DHT22;38563;54.258;12.574;2023-06-14T01:17:22;11.70;99.90
13598;DHT22;38563;54.258;12.574;2023-06-14T01:19:51;11.60;99.90
13598;DHT22;38563;54.258;12.574;2023-06-14T01:22:24;11.70;99.90
13598;DHT22;38563;54.258;12.574;2023-06-14T01:24:55;11.70;99.90
13598;DHT22;38563;54.258;12.574;2023-06-14T01:27:23;11.60;99.90
13598;DHT22;38563;54.258;12.574;2023-06-14T01:29:54;11.60;99.90
13598;DHT22;38563;54.258;12.574;2023-06-14T01:32:23;11.70;99.90
13598;DHT22;38563;54.258;12.574;2023-06-14T01:34:51;11.70;99.90
13598;DHT22;38563;54.258;12.574;2023-06-14T01:37:19;11.60;99.90
13598;DHT22;38563;54.258;12.574;2023-06-14T01:39:47;11.60;99.90
13598;DHT22;38563;54.258;12.574;2023-06-14T01:42:20;11.60;99.90
13598;DHT22;38563;54.258;12.574;2023-06-14T01:44:47;11.60;99.90
13598;DHT22;38563;54.258;12.574;2023-06-14T01:47:15;11.50;99.90
13598;DHT22;38563;54.258;12.574;2023-06-14T01:49:41;11.40;99.90
13598;DHT22;38563;54.258;12.574;2023-06-14T01:52:08;11.40;99.90
13598;DHT22;38563;54.258;12.574;2023-06-14T01:54:35;11.30;99.90
13598;DHT22;38563;54.258;12.574;2023-06-14T01:57:07;11.20;99.90
13598;DHT22;38563;54.258;12.574;2023-06-14T01:59:35;11.20;99.90
13598;DHT22;38563;54.258;12.574;2023-06-14T02:02:03;11.10;99.90
13598;DHT22;38563;54.258;12.574;2023-06-14T02:04:31;11.20;99.90
13598;DHT22;38563;54.258;12.574;2023-06-14T02:06:58;11.20;99.90
13598;DHT22;38563;54.258;12.574;2023-06-14T02:09:25;11.20;99.90
13598;DHT22;38563;54.258;12.574;2023-06-14T02:11:53;11.20;99.90
13598;DHT22;38563;54.258;12.574;2023-06-14T02:14:20;11.20;99.90
13598;DHT22;38563;54.258;12.574;2023-06-14T02:16:49;11.20;99.90
13598;DHT22;38563;54.258;12.574;2023-06-14T02:19:16;11.20;99.90
13598;DHT22;38563;54.258;12.574;2023-06-14T02:21:43;11.10;99.90
13598;DHT22;38563;54.258;12.574;2023-06-14T02:24:12;11.00;99.90
13598;DHT22;38563;54.258;12.574;2023-06-14T02:26:38;10.90;99.90
13598;DHT22;38563;54.258;12.574;2023-06-14T02:29:06;10.90;99.90
13598;DHT22;38563;54.258;12.574;2023-06-14T02:31:36;10.90;99.90
13598;DHT22;38563;54.258;12.574;2023-06-14T02:34:04;10.80;99.90
13598;DHT22;38563;54.258;12.574;2023-06-14T02:36:31;10.80;99.90
13598;DHT22;38563;54.258;12.574;2023-06-14T02:38:59;10.80;99.90
13598;DHT22;38563;54.258;12.574;2023-06-14T02:41:26;10.80;99.90
13598;DHT22;38563;54.258;12.574;2023-06-14T02:43:53;10.80;99.90
13598;DHT22;38563;54.258;12.574;2023-06-14T02:46:21;10.80;99.90
13598;DHT22;38563;54.258;12.574;2023-06-14T02:48:49;10.80;99.90
13598;DHT22;38563;54.258;12.574;2023-06-14T02:51:17;10.80;99.90
13598;DHT22;38563;54.258;12.574;2023-06-14T02:53:44;10.80;99.90
13598;DHT22;38563;54.258;12.574;2023-06-14T02:56:10;10.70;99.90
13598;DHT22;38563;54.258;12.574;2023-06-14T02:58:38;10.70;99.90
13598;DHT22;38563;54.258;12.574;2023-06-14T03:01:06;10.70;99.90
13598;DHT22;38563;54.258;12.574;2023-06-14T03:03:33;10.60;99.90
13598;DHT22;38563;54.258;12.574;2023-06-14T03:06:00;10.60;99.90
13598;DHT22;38563;54.258;12.574;2023-06-14T03:08:33;10.60;99.90
13598;DHT22;38563;54.258;12.574;2023-06-14T03:11:07;10.60;99.90
13598;DHT22;38563;54.258;12.574;2023-06-14T03:13:35;10.70;99.90
13598;DHT22;38563;54.258;12.574;2023-06-14T03:16:04;10.80;99.90
13598;DHT22;38563;54.258;12.574;2023-06-14T03:18:37;10.80;99.90
13598;DHT22;38563;54.258;12.574;2023-06-14T03:21:05;10.80;99.90
13598;DHT22;38563;54.258;12.574;2023-06-14T03:23:36;10.90;99.90
13598;DHT22;38563;54.258;12.574;2023-06-14T03:26:03;10.90;99.90
13598;DHT22;38563;54.258;12.574;2023-06-14T03:28:31;11.00;99.90
13598;DHT22;38563;54.258;12.574;2023-06-14T03:30:58;11.00;99.90
13598;DHT22;38563;54.258;12.574;2023-06-14T03:33:27;11.00;99.90
13598;DHT22;38563;54.258;12.574;2023-06-14T03:35:54;11.00;99.90
13598;DHT22;38563;54.258;12.574;2023-06-14T03:38:21;11.10;99.90
13598;DHT22;38563;54.258;12.574;2023-06-14T03:40:51;11.10;99.90
13598;DHT22;38563;54.258;12.574;2023-06-14T03:43:17;11.10;99.90
13598;DHT22;38563;54.258;12.574;2023-06-14T03:45:44;11.20;99.90
13598;DHT22;38563;54.258;12.574;2023-06-14T03:48:11;11.20;99.90
13598;DHT22;38563;54.258;12.574;2023-06-14T03:50:38;11.20;99.90
13598;DHT22;38563;54.258;12.574;2023-06-14T03:53:05;11.30;99.90
13598;DHT22;38563;54.258;12.574;2023-06-14T03:55:35;11.30;99.90
13598;DHT22;38563;54.258;12.574;2023-06-14T03:58:05;11.40;99.90
13598;DHT22;38563;54.258;12.574;2023-06-14T04:00:32;11.50;99.90
13598;DHT22;38563;54.258;12.574;2023-06-14T04:02:59;11.60;99.90
13598;DHT22;38563;54.258;12.574;2023-06-14T04:05:25;11.70;99.90
13598;DHT22;38563;54.258;12.574;2023-06-14T04:07:55;11.90;99.90
13598;DHT22;38563;54.258;12.574;2023-06-14T04:10:22;12.00;99.90
13598;DHT22;38563;54.258;12.574;2023-06-14T04:12:49;12.20;99.90
13598;DHT22;38563;54.258;12.574;2023-06-14T04:15:18;12.40;99.90
13598;DHT22;38563;54.258;12.574;2023-06-14T04:17:45;12.60;99.90
13598;DHT22;38563;54.258;12.574;2023-06-14T04:20:12;12.80;99.90
13598;DHT22;38563;54.258;12.574;2023-06-14T04:22:39;12.90;99.90
13598;DHT22;38563;54.258;12.574;2023-06-14T04:25:07;13.00;99.90
13598;DHT22;38563;54.258;12.574;2023-06-14T04:27:34;13.10;99.90
13598;DHT22;38563;54.258;12.574;2023-06-14T04:30:04;13.20;99.90
13598;DHT22;38563;54.258;12.574;2023-06-14T04:32:37;13.40;99.90
13598;DHT22;38563;54.258;12.574;2023-06-14T04:35:07;13.50;99.90
13598;DHT22;38563;54.258;12.574;2023-06-14T04:37:35;13.70;99.90
13598;DHT22;38563;54.258;12.574;2023-06-14T04:40:07;13.70;99.90
13598;DHT22;38563;54.258;12.574;2023-06-14T04:42:36;13.70;99.90
13598;DHT22;38563;54.258;12.574;2023-06-14T04:45:06;13.70;99.90
13598;DHT22;38563;54.258;12.574;2023-06-14T04:47:33;13.90;99.90
13598;DHT22;38563;54.258;12.574;2023-06-14T04:50:06;14.00;99.90
13598;DHT22;38563;54.258;12.574;2023-06-14T04:52:34;14.20;99.90
13598;DHT22;38563;54.258;12.574;2023-06-14T04:55:01;14.20;99.90
13598;DHT22;38563;54.258;12.574;2023-06-14T05:16:23;15.00;99.90
13598;DHT22;38563;54.258;12.574;2023-06-14T05:18:51;15.10;99.90
13598;DHT22;38563;54.258;12.574;2023-06-14T05:21:17;15.20;99.90
13598;DHT22;38563;54.258;12.574;2023-06-14T05:23:44;15.30;99.90
13598;DHT22;38563;54.258;12.574;2023-06-14T05:26:11;15.40;99.90
13598;DHT22;38563;54.258;12.574;2023-06-14T05:28:38;15.50;99.90
13598;DHT22;38563;54.258;12.574;2023-06-14T05:31:04;15.70;99.90
13598;DHT22;38563;54.258;12.574;2023-06-14T05:33:33;15.70;99.90
13598;DHT22;38563;54.258;12.574;2023-06-14T05:35:59;15.90;99.90
13598;DHT22;38563;54.258;12.574;2023-06-14T05:38:26;15.80;99.90
13598;DHT22;38563;54.258;12.574;2023-06-14T05:40:53;16.00;99.90
13598;DHT22;38563;54.258;12.574;2023-06-14T05:43:19;16.10;99.90
13598;DHT22;38563;54.258;12.574;2023-06-14T05:45:46;16.10;99.90
13598;DHT22;38563;54.258;12.574;2023-06-14T05:48:13;16.20;99.90
13598;DHT22;38563;54.258;12.574;2023-06-14T05:50:41;16.30;99.90
13598;DHT22;38563;54.258;12.574;2023-06-14T05:53:08;16.40;99.90
13598;DHT22;38563;54.258;12.574;2023-06-14T05:55:34;16.50;99.90
13598;DHT22;38563;54.258;12.574;2023-06-14T05:58:01;16.60;99.90
13598;DHT22;38563;54.258;12.574;2023-06-14T06:00:28;16.70;99.90
13598;DHT22;38563;54.258;12.574;2023-06-14T06:02:55;16.80;99.90
13598;DHT22;38563;54.258;12.574;2023-06-14T06:05:23;16.90;99.90
13598;DHT22;38563;54.258;12.574;2023-06-14T06:07:51;17.10;99.90
13598;DHT22;38563;54.258;12.574;2023-06-14T06:10:18;17.10;99.90
13598;DHT22;38563;54.258;12.574;2023-06-14T06:12:45;17.10;99.90
13598;DHT22;38563;54.258;12.574;2023-06-14T06:15:12;17.20;99.90
13598;DHT22;38563;54.258;12.574;2023-06-14T06:17:40;17.30;99.90
13598;DHT22;38563;54.258;12.574;2023-06-14T06:20:07;17.30;99.90
13598;DHT22;38563;54.258;12.574;2023-06-14T06:22:35;17.50;99.90
13598;DHT22;38563;54.258;12.574;2023-06-14T06:25:03;17.70;99.90
13598;DHT22;38563;54.258;12.574;2023-06-14T06:27:30;17.80;99.90
13598;DHT22;38563;54.258;12.574;2023-06-14T06:29:57;17.80;99.90
13598;DHT22;38563;54.258;12.574;2023-06-14T06:32:24;17.80;99.90
13598;DHT22;38563;54.258;12.574;2023-06-14T06:34:51;17.90;99.90
13598;DHT22;38563;54.258;12.574;2023-06-14T06:37:18;18.00;99.90
13598;DHT22;38563;54.258;12.574;2023-06-14T06:39:44;18.00;99.90
13598;DHT22;38563;54.258;12.574;2023-06-14T06:42:13;18.00;99.90
13598;DHT22;38563;54.258;12.574;2023-06-14T06:44:42;18.00;99.90
13598;DHT22;38563;54.258;12.574;2023-06-14T06:47:09;18.20;99.90
13598;DHT22;38563;54.258;12.574;2023-06-14T06:49:36;18.30;99.90
13598;DHT22;38563;54.258;12.574;2023-06-14T06:52:05;18.50;99.90
13598;DHT22;38563;54.258;12.574;2023-06-14T06:54:32;18.60;99.90
13598;DHT22;38563;54.258;12.574;2023-06-14T06:56:59;18.70;99.90
13598;DHT22;38563;54.258;12.574;2023-06-14T06:59:28;18.70;99.90
13598;DHT22;38563;54.258;12.574;2023-06-14T07:01:55;18.70;99.90
13598;DHT22;38563;54.258;12.574;2023-06-14T07:04:22;18.70;99.90
13598;DHT22;38563;54.258;12.574;2023-06-14T07:06:49;18.80;99.90
13598;DHT22;38563;54.258;12.574;2023-06-14T07:09:16;18.80;99.90
13598;DHT22;38563;54.258;12.574;2023-06-14T07:11:44;18.90;99.90
13598;DHT22;38563;54.258;12.574;2023-06-14T07:14:11;19.10;99.90
13598;DHT22;38563;54.258;12.574;2023-06-14T07:16:39;19.30;99.90
13598;DHT22;38563;54.258;12.574;2023-06-14T07:19:07;19.40;99.90
13598;DHT22;38563;54.258;12.574;2023-06-14T07:21:34;19.40;99.90
13598;DHT22;38563;54.258;12.574;2023-06-14T07:24:03;19.50;99.90
13598;DHT22;38563;54.258;12.574;2023-06-14T07:26:30;19.70;99.90
13598;DHT22;38563;54.258;12.574;2023-06-14T07:28:56;19.80;99.90
13598;DHT22;38563;54.258;12.574;2023-06-14T07:31:23;20.00;99.90
13598;DHT22;38563;54.258;12.574;2023-06-14T07:33:51;19.90;99.90
13598;DHT22;38563;54.258;12.574;2023-06-14T07:36:18;19.90;99.90
13598;DHT22;38563;54.258;12.574;2023-06-14T07:38:45;20.10;99.90
13598;DHT22;38563;54.258;12.574;2023-06-14T07:41:12;20.20;99.90
13598;DHT22;38563;54.258;12.574;2023-06-14T07:43:39;20.30;99.90
13598;DHT22;38563;54.258;12.574;2023-06-14T07:46:06;20.40;99.90
13598;DHT22;38563;54.258;12.574;2023-06-14T07:48:33;20.50;99.90
13598;DHT22;38563;54.258;12.574;2023-06-14T07:51:01;20.60;99.90
13598;DHT22;38563;54.258;12.574;2023-06-14T07:53:28;20.90;99.90
13598;DHT22;38563;54.258;12.574;2023-06-14T07:55:56;21.60;99.90
13598;DHT22;38563;54.258;12.574;2023-06-14T07:58:23;22.40;99.90
13598;DHT22;38563;54.258;12.574;2023-06-14T08:00:49;22.80;99.90
13598;DHT22;38563;54.258;12.574;2023-06-14T08:03:16;23.10;99.90
13598;DHT22;38563;54.258;12.574;2023-06-14T08:05:43;23.30;99.90
13598;DHT22;38563;54.258;12.574;2023-06-14T08:08:11;23.40;99.90
13598;DHT22;38563;54.258;12.574;2023-06-14T08:10:38;23.60;99.90
13598;DHT22;38563;54.258;12.574;2023-06-14T08:13:05;23.60;99.90
13598;DHT22;38563;54.258;12.574;2023-06-14T08:15:31;23.60;99.90
13598;DHT22;38563;54.258;12.574;2023-06-14T08:17:59;23.60;99.90
13598;DHT22;38563;54.258;12.574;2023-06-14T08:20:26;23.20;99.90
13598;DHT22;38563;54.258;12.574;2023-06-14T08:22:53;23.20;99.90
13598;DHT22;38563;54.258;12.574;2023-06-14T08:25:23;23.10;99.90
13598;DHT22;38563;54.258;12.574;2023-06-14T08:27:51;23.30;99.90
13598;DHT22;38563;54.258;12.574;2023-06-14T08:30:18;23.60;99.90
13598;DHT22;38563;54.258;12.574;2023-06-14T08:32:44;23.90;99.90
13598;DHT22;38563;54.258;12.574;2023-06-14T08:35:11;24.50;99.90
13598;DHT22;38563;54.258;12.574;2023-06-14T08:37:39;24.80;99.90
13598;DHT22;38563;54.258;12.574;2023-06-14T08:40:17;24.60;99.90
13598;DHT22;38563;54.258;12.574;2023-06-14T08:42:48;24.60;99.90
13598;DHT22;38563;54.258;12.574;2023-06-14T08:45:16;24.40;99.90
13598;DHT22;38563;54.258;12.574;2023-06-14T08:47:43;23.90;99.90
13598;DHT22;38563;54.258;12.574;2023-06-14T08:50:11;23.30;99.90
13598;DHT22;38563;54.258;12.574;2023-06-14T08:52:41;23.10;99.90
13598;DHT22;38563;54.258;12.574;2023-06-14T08:55:16;23.50;99.90
13598;DHT22;38563;54.258;12.574;2023-06-14T08:57:47;24.00;99.90
13598;DHT22;38563;54.258;12.574;2023-06-14T09:00:15;24.10;99.90
13598;DHT22;38563;54.258;12.574;2023-06-14T09:02:42;23.50;99.90
13598;DHT22;38563;54.258;12.574;2023-06-14T09:05:09;23.20;99.90
13598;DHT22;38563;54.258;12.574;2023-06-14T09:07:39;23.20;99.90
13598;DHT22;38563;54.258;12.574;2023-06-14T09:10:08;23.10;99.90
13598;DHT22;38563;54.258;12.574;2023-06-14T09:12:35;23.00;99.90
13598;DHT22;38563;54.258;12.574;2023-06-14T09:15:04;23.00;99.90
13598;DHT22;38563;54.258;12.574;2023-06-14T09:17:32;23.40;99.90
13598;DHT22;38563;54.258;12.574;2023-06-14T09:20:00;23.40;99.90
13598;DHT22;38563;54.258;12.574;2023-06-14T09:22:29;23.10;99.90
13598;DHT22;38563;54.258;12.574;2023-06-14T09:24:56;23.30;99.90
13598;DHT22;38563;54.258;12.574;2023-06-14T09:27:23;23.50;99.90
13598;DHT22;38563;54.258;12.574;2023-06-14T09:29:51;23.90;99.90
13598;DHT22;38563;54.258;12.574;2023-06-14T09:32:20;23.90;99.90
13598;DHT22;38563;54.258;12.574;2023-06-14T09:34:47;23.90;99.90
13598;DHT22;38563;54.258;12.574;2023-06-14T09:37:26;24.00;99.90
13598;DHT22;38563;54.258;12.574;2023-06-14T09:39:53;23.90;99.90
13598;DHT22;38563;54.258;12.574;2023-06-14T09:42:20;24.00;99.90
13598;DHT22;38563;54.258;12.574;2023-06-14T09:44:47;24.40;99.90
13598;DHT22;38563;54.258;12.574;2023-06-14T09:47:15;24.50;99.90
13598;DHT22;38563;54.258;12.574;2023-06-14T09:49:43;24.50;99.90
13598;DHT22;38563;54.258;12.574;2023-06-14T09:52:12;24.40;99.90
13598;DHT22;38563;54.258;12.574;2023-06-14T09:54:41;24.60;99.90
13598;DHT22;38563;54.258;12.574;2023-06-14T09:57:10;24.60;99.90
13598;DHT22;38563;54.258;12.574;2023-06-14T09:59:40;24.70;99.90
13598;DHT22;38563;54.258;12.574;2023-06-14T10:02:11;24.30;99.90
13598;DHT22;38563;54.258;12.574;2023-06-14T10:04:44;23.80;99.90
13598;DHT22;38563;54.258;12.574;2023-06-14T10:07:13;23.60;99.90
13598;DHT22;38563;54.258;12.574;2023-06-14T10:09:41;23.60;99.90
13598;DHT22;38563;54.258;12.574;2023-06-14T10:12:11;23.90;99.90
13598;DHT22;38563;54.258;12.574;2023-06-14T10:14:41;24.20;99.90
13598;DHT22;38563;54.258;12.574;2023-06-14T10:17:10;24.40;99.90
13598;DHT22;38563;54.258;12.574;2023-06-14T10:19:44;24.50;99.90
13598;DHT22;38563;54.258;12.574;2023-06-14T10:22:18;24.40;99.90
13598;DHT22;38563;54.258;12.574;2023-06-14T10:24:48;24.40;99.90
13598;DHT22;38563;54.258;12.574;2023-06-14T10:27:16;24.20;99.90
13598;DHT22;38563;54.258;12.574;2023-06-14T10:30:03;24.20;99.90
13598;DHT22;38563;54.258;12.574;2023-06-14T10:32:31;24.20;99.90
13598;DHT22;38563;54.258;12.574;2023-06-14T10:35:00;23.80;99.90
13598;DHT22;38563;54.258;12.574;2023-06-14T10:37:27;23.70;99.90
13598;DHT22;38563;54.258;12.574;2023-06-14T10:39:54;23.60;99.90
13598;DHT22;38563;54.258;12.574;2023-06-14T10:42:21;23.90;99.90
13598;DHT22;38563;54.258;12.574;2023-06-14T10:44:52;23.60;99.90
13598;DHT22;38563;54.258;12.574;2023-06-14T10:47:23;23.60;99.90
13598;DHT22;38563;54.258;12.574;2023-06-14T10:49:51;23.70;99.90
13598;DHT22;38563;54.258;12.574;2023-06-14T10:52:23;24.00;99.90
13598;DHT22;38563;54.258;12.574;2023-06-14T10:55:01;24.10;99.90
13598;DHT22;38563;54.258;12.574;2023-06-14T15:06:02;25.10;99.90
13598;DHT22;38563;54.258;12.574;2023-06-14T15:08:28;25.00;99.90
13598;DHT22;38563;54.258;12.574;2023-06-14T15:10:55;24.90;99.90
13598;DHT22;38563;54.258;12.574;2023-06-14T15:13:22;25.00;99.90
13598;DHT22;38563;54.258;12.574;2023-06-14T15:15:49;24.90;99.90
13598;DHT22;38563;54.258;12.574;2023-06-14T15:18:15;25.10;99.90
13598;DHT22;38563;54.258;12.574;2023-06-14T15:20:42;25.00;99.90
13598;DHT22;38563;54.258;12.574;2023-06-14T15:23:10;24.90;99.90
13598;DHT22;38563;54.258;12.574;2023-06-14T15:25:37;25.10;99.90
13598;DHT22;38563;54.258;12.574;2023-06-14T15:28:04;25.50;99.90
13598;DHT22;38563;54.258;12.574;2023-06-14T15:30:32;25.40;99.90
13598;DHT22;38563;54.258;12.574;2023-06-14T15:32:58;25.00;99.90
13598;DHT22;38563;54.258;12.574;2023-06-14T15:35:25;24.60;99.90
13598;DHT22;38563;54.258;12.574;2023-06-14T15:37:52;24.70;99.90
13598;DHT22;38563;54.258;12.574;2023-06-14T15:40:20;24.80;99.90
13598;DHT22;38563;54.258;12.574;2023-06-14T15:42:47;24.80;99.90
13598;DHT22;38563;54.258;12.574;2023-06-14T15:45:14;25.00;99.90
13598;DHT22;38563;54.258;12.574;2023-06-14T15:47:41;25.30;99.90
13598;DHT22;38563;54.258;12.574;2023-06-14T15:50:09;25.30;99.90
13598;DHT22;38563;54.258;12.574;2023-06-14T15:52:35;24.90;99.90
13598;DHT22;38563;54.258;12.574;2023-06-14T15:55:02;24.80;99.90
13598;DHT22;38563;54.258;12.574;2023-06-14T15:57:31;24.60;99.90
13598;DHT22;38563;54.258;12.574;2023-06-14T15:59:57;24.80;99.90
13598;DHT22;38563;54.258;12.574;2023-06-14T16:02:24;24.70;99.90
13598;DHT22;38563;54.258;12.574;2023-06-14T16:04:51;24.80;99.90
13598;DHT22;38563;54.258;12.574;2023-06-14T16:07:17;24.90;99.90
13598;DHT22;38563;54.258;12.574;2023-06-14T16:09:44;24.80;99.90
13598;DHT22;38563;54.258;12.574;2023-06-14T16:12:11;24.70;99.90
13598;DHT22;38563;54.258;12.574;2023-06-14T16:14:39;24.30;99.90
13598;DHT22;38563;54.258;12.574;2023-06-14T16:17:06;23.90;99.90
13598;DHT22;38563;54.258;12.574;2023-06-14T16:19:33;23.60;99.90
13598;DHT22;38563;54.258;12.574;2023-06-14T16:21:59;23.40;99.90
13598;DHT22;38563;54.258;12.574;2023-06-14T16:24:26;23.30;99.90
13598;DHT22;38563;54.258;12.574;2023-06-14T16:26:53;23.00;99.90
13598;DHT22;38563;54.258;12.574;2023-06-14T16:29:20;23.00;99.90
13598;DHT22;38563;54.258;12.574;2023-06-14T16:31:48;22.80;99.90
13598;DHT22;38563;54.258;12.574;2023-06-14T16:34:14;22.80;99.90
13598;DHT22;38563;54.258;12.574;2023-06-14T16:36:42;22.70;99.90
13598;DHT22;38563;54.258;12.574;2023-06-14T16:39:09;22.70;99.90
13598;DHT22;38563;54.258;12.574;2023-06-14T16:41:36;22.60;99.90
13598;DHT22;38563;54.258;12.574;2023-06-14T16:44:03;22.60;99.90
13598;DHT22;38563;54.258;12.574;2023-06-14T16:46:31;22.60;99.90
13598;DHT22;38563;54.258;12.574;2023-06-14T16:49:00;22.60;99.90
13598;DHT22;38563;54.258;12.574;2023-06-14T16:51:27;22.60;99.90
13598;DHT22;38563;54.258;12.574;2023-06-14T16:53:54;22.50;99.90
13598;DHT22;38563;54.258;12.574;2023-06-14T16:56:21;22.50;99.90
13598;DHT22;38563;54.258;12.574;2023-06-14T16:58:51;22.50;99.90
13598;DHT22;38563;54.258;12.574;2023-06-14T17:24:05;21.10;99.90
13598;DHT22;38563;54.258;12.574;2023-06-14T17:26:31;21.10;99.90
13598;DHT22;38563;54.258;12.574;2023-06-14T17:28:58;21.10;99.90
13598;DHT22;38563;54.258;12.574;2023-06-14T17:31:25;21.10;99.90
13598;DHT22;38563;54.258;12.574;2023-06-14T17:33:52;21.20;99.90
13598;DHT22;38563;54.258;12.574;2023-06-14T17:36:19;21.30;99.90
13598;DHT22;38563;54.258;12.574;2023-06-14T17:38:45;21.40;99.90
13598;DHT22;38563;54.258;12.574;2023-06-14T17:41:16;21.40;99.90
13598;DHT22;38563;54.258;12.574;2023-06-14T17:43:44;21.40;99.90
13598;DHT22;38563;54.258;12.574;2023-06-14T17:46:11;21.30;99.90
13598;DHT22;38563;54.258;12.574;2023-06-14T17:48:37;21.30;99.90
13598;DHT22;38563;54.258;12.574;2023-06-14T17:51:05;21.50;99.90
13598;DHT22;38563;54.258;12.574;2023-06-14T17:53:32;21.60;99.90
13598;DHT22;38563;54.258;12.574;2023-06-14T17:56:01;21.60;99.90
13598;DHT22;38563;54.258;12.574;2023-06-14T17:58:29;21.40;99.90
13598;DHT22;38563;54.258;12.574;2023-06-14T18:00:56;21.30;99.90
13598;DHT22;38563;54.258;12.574;2023-06-14T18:03:23;21.30;99.90
13598;DHT22;38563;54.258;12.574;2023-06-14T18:05:50;21.40;99.90
13598;DHT22;38563;54.258;12.574;2023-06-14T18:08:16;21.60;99.90
13598;DHT22;38563;54.258;12.574;2023-06-14T18:10:43;21.60;99.90
13598;DHT22;38563;54.258;12.574;2023-06-14T18:13:10;21.60;99.90
13598;DHT22;38563;54.258;12.574;2023-06-14T18:15:38;21.60;99.90
13598;DHT22;38563;54.258;12.574;2023-06-14T18:18:05;21.30;99.90
13598;DHT22;38563;54.258;12.574;2023-06-14T18:20:32;21.40;99.90
13598;DHT22;38563;54.258;12.574;2023-06-14T18:22:58;21.60;99.90
13598;DHT22;38563;54.258;12.574;2023-06-14T18:25:25;21.90;99.90
13598;DHT22;38563;54.258;12.574;2023-06-14T18:27:52;22.30;99.90
13598;DHT22;38563;54.258;12.574;2023-06-14T18:30:19;22.30;99.90
13598;DHT22;38563;54.258;12.574;2023-06-14T18:32:47;22.40;99.90
13598;DHT22;38563;54.258;12.574;2023-06-14T18:35:14;22.50;99.90
13598;DHT22;38563;54.258;12.574;2023-06-14T18:37:41;22.40;99.90
13598;DHT22;38563;54.258;12.574;2023-06-14T18:40:09;22.40;99.90
13598;DHT22;38563;54.258;12.574;2023-06-14T18:42:36;22.20;99.90
13598;DHT22;38563;54.258;12.574;2023-06-14T18:45:04;22.00;99.90
13598;DHT22;38563;54.258;12.574;2023-06-14T18:47:30;22.00;99.90
13598;DHT22;38563;54.258;12.574;2023-06-14T18:49:58;22.00;99.90
13598;DHT22;38563;54.258;12.574;2023-06-14T18:52:25;21.90;99.90
13598;DHT22;38563;54.258;12.574;2023-06-14T18:54:52;21.40;99.90
13598;DHT22;38563;54.258;12.574;2023-06-14T18:57:18;20.70;99.90
13598;DHT22;38563;54.258;12.574;2023-06-14T18:59:46;20.00;99.90
13598;DHT22;38563;54.258;12.574;2023-06-14T19:02:13;19.50;99.90
13598;DHT22;38563;54.258;12.574;2023-06-14T19:04:39;19.10;99.90
13598;DHT22;38563;54.258;12.574;2023-06-14T19:07:07;18.80;99.90
13598;DHT22;38563;54.258;12.574;2023-06-14T19:09:34;18.50;99.90
13598;DHT22;38563;54.258;12.574;2023-06-14T19:12:01;18.30;99.90
13598;DHT22;38563;54.258;12.574;2023-06-14T19:14:27;18.10;99.90
13598;DHT22;38563;54.258;12.574;2023-06-14T19:16:54;18.00;99.90
13598;DHT22;38563;54.258;12.574;2023-06-14T19:19:21;17.90;99.90
13598;DHT22;38563;54.258;12.574;2023-06-14T19:21:48;17.80;99.90
13598;DHT22;38563;54.258;12.574;2023-06-14T19:24:16;17.60;99.90
13598;DHT22;38563;54.258;12.574;2023-06-14T19:26:44;17.50;99.90
13598;DHT22;38563;54.258;12.574;2023-06-14T19:29:11;17.40;99.90
13598;DHT22;38563;54.258;12.574;2023-06-14T19:31:38;17.30;99.90
13598;DHT22;38563;54.258;12.574;2023-06-14T19:34:05;17.10;99.90
13598;DHT22;38563;54.258;12.574;2023-06-14T19:36:32;17.00;99.90
13598;DHT22;38563;54.258;12.574;2023-06-14T19:38:58;17.00;99.90
13598;DHT22;38563;54.258;12.574;2023-06-14T19:41:26;16.90;99.90
13598;DHT22;38563;54.258;12.574;2023-06-14T19:43:53;16.80;99.90
13598;DHT22;38563;54.258;12.574;2023-06-14T19:46:21;16.80;99.90
13598;DHT22;38563;54.258;12.574;2023-06-14T19:48:50;16.60;99.90
13598;DHT22;38563;54.258;12.574;2023-06-14T19:51:17;16.50;99.90
13598;DHT22;38563;54.258;12.574;2023-06-14T19:53:44;16.40;99.90
13598;DHT22;38563;54.258;12.574;2023-06-14T19:56:11;16.20;99.90
13598;DHT22;38563;54.258;12.574;2023-06-14T19:58:39;16.10;99.90
13598;DHT22;38563;54.258;12.574;2023-06-14T20:01:07;16.00;99.90
13598;DHT22;38563;54.258;12.574;2023-06-14T20:03:33;15.90;99.90
13598;DHT22;38563;54.258;12.574;2023-06-14T20:06:01;15.90;99.90
13598;DHT22;38563;54.258;12.574;2023-06-14T20:08:27;15.80;99.90